Time;durP1;ratioP1;P1;durP2;ratioP2;P2;SDS_P1;SDS_P2;PMS_P1;PMS_P2;Temp;Humidity;BMP_temperature;BMP_pressure;BME280_temperature;BME280_humidity;BME280_pressure;Samples;Min_cycle;Max_cycle;Signal;HPM_P1;HPM_P2
2024/03/02 00:00:39;;;;;;;7.90;2.40;;;;;;;10.85;46.95;97639.53;5072825;28;20517;-50
2024/03/02 00:03:07;;;;;;;3.70;1.83;;;;;;;10.94;46.84;97644.19;5071295;28;20043;-49
2024/03/02 00:05:32;;;;;;;2.97;1.90;;;;;;;10.96;46.50;97636.09;5071188;28;20528;-49
2024/03/02 00:07:59;;;;;;;21.58;19.42;;;;;;;10.98;46.49;97636.66;5072465;28;20020;-50
2024/03/02 00:10:29;;;;;;;16.25;13.95;;;;;;;11.02;46.16;97629.16;5072417;28;20020;-50
2024/03/02 00:12:56;;;;;;;4.20;3.00;;;;;;;10.97;45.92;97629.84;5071061;28;20367;-49
2024/03/02 00:15:40;;;;;;;6.90;3.42;;;;;;;10.86;46.24;97635.88;5072179;28;20029;-49
2024/03/02 00:18:07;;;;;;;6.10;2.30;;;;;;;10.94;46.37;97631.06;5072268;28;20029;-50
2024/03/02 00:20:32;;;;;;;5.72;2.85;;;;;;;10.99;46.54;97623.31;5071066;28;20031;-50
2024/03/02 00:23:09;;;;;;;5.47;2.15;;;;;;;11.19;46.34;97620.34;5070898;28;20569;-50
2024/03/02 00:25:44;;;;;;;5.75;2.10;;;;;;;11.39;45.75;97625.22;5072159;28;20059;-50
2024/03/02 00:28:19;;;;;;;4.80;3.63;;;;;;;11.33;45.80;97620.09;5072103;28;20044;-50
2024/03/02 00:30:47;;;;;;;4.47;1.75;;;;;;;11.37;45.96;97624.66;5072307;28;20024;-49
2024/03/02 00:33:13;;;;;;;4.30;2.78;;;;;;;11.37;45.84;97635.16;5072161;28;20046;-50
2024/03/02 00:35:39;;;;;;;5.88;2.00;;;;;;;11.37;45.85;97637.78;5070423;28;20056;-50
2024/03/02 00:38:06;;;;;;;3.63;1.90;;;;;;;11.29;45.76;97632.91;5071902;28;20478;-49
2024/03/02 00:40:32;;;;;;;3.22;1.80;;;;;;;11.22;46.34;97620.91;5072012;28;20494;-49
2024/03/02 00:42:58;;;;;;;4.65;2.00;;;;;;;11.23;46.35;97628.56;5070805;28;20096;-49
2024/03/02 00:45:25;;;;;;;12.20;9.63;;;;;;;11.28;46.39;97626.03;5071942;28;20108;-49
2024/03/02 00:47:51;;;;;;;3.30;2.00;;;;;;;11.39;46.15;97642.81;5072215;28;20454;-50
2024/03/02 00:50:17;;;;;;;5.00;2.00;;;;;;;11.44;46.55;97635.03;5070651;28;20086;-50
2024/03/02 00:52:43;;;;;;;4.85;2.00;;;;;;;11.56;45.79;97637.63;5070520;28;20028;-49
2024/03/02 00:55:10;;;;;;;6.47;2.60;;;;;;;11.71;46.39;97627.44;5071970;28;20055;-49
2024/03/02 00:57:35;;;;;;;3.80;1.80;;;;;;;11.84;45.35;97630.81;5071780;28;20029;-49
2024/03/02 01:00:01;;;;;;;3.20;1.65;;;;;;;11.94;45.27;97620.53;5070428;28;20032;-50
2024/03/02 01:02:29;;;;;;;3.58;1.73;;;;;;;12.02;45.11;97624.59;5070460;28;20119;-49
2024/03/02 01:04:54;;;;;;;8.10;6.18;;;;;;;12.04;45.14;97618.06;5070428;28;20406;-50
2024/03/02 01:07:20;;;;;;;2.92;1.83;;;;;;;12.07;44.97;97627.31;5070357;28;20039;-50
2024/03/02 01:09:46;;;;;;;10.75;2.83;;;;;;;12.04;45.23;97618.06;5071737;28;20029;-49
2024/03/02 01:12:12;;;;;;;5.57;1.80;;;;;;;12.02;45.14;97620.13;5070625;28;20024;-49
2024/03/02 01:14:37;;;;;;;3.85;2.33;;;;;;;12.02;45.24;97609.63;5071709;28;20048;-50
2024/03/02 01:17:06;;;;;;;14.70;9.05;;;;;;;12.02;45.78;97614.09;5071627;28;20031;-49
2024/03/02 01:19:32;;;;;;;2.15;1.85;;;;;;;12.05;45.43;97617.03;5070257;28;20028;-50
2024/03/02 01:21:57;;;;;;;3.00;1.80;;;;;;;11.97;45.05;97606.88;5071514;28;20055;-50
2024/03/02 01:24:23;;;;;;;5.10;2.47;;;;;;;11.90;45.98;97612.28;5071823;28;20115;-49
2024/03/02 01:26:49;;;;;;;5.53;1.75;;;;;;;12.05;45.47;97618.84;5071495;28;20020;-49
2024/03/02 01:29:14;;;;;;;2.72;1.73;;;;;;;12.17;45.36;97594.13;5070186;28;20538;-49
2024/03/02 01:31:45;;;;;;;3.30;1.70;;;;;;;12.10;44.95;97603.97;5070138;28;20024;-49
2024/03/02 01:34:12;;;;;;;5.05;1.90;;;;;;;12.13;45.14;97594.81;5071426;28;20024;-49
2024/03/02 01:36:38;;;;;;;3.60;1.42;;;;;;;12.16;44.88;97607.50;5071112;28;20056;-50
2024/03/02 01:39:04;;;;;;;8.27;7.47;;;;;;;12.18;45.37;97595.69;5071439;28;20500;-49
2024/03/02 01:41:29;;;;;;;4.22;1.67;;;;;;;12.32;45.44;97595.41;5070061;28;20020;-49
2024/03/02 01:43:55;;;;;;;6.43;3.67;;;;;;;12.37;45.00;97598.09;5071385;28;20098;-49
2024/03/02 01:46:21;;;;;;;2.85;1.60;;;;;;;12.38;44.90;97597.06;5071303;28;20024;-50
2024/03/02 01:48:47;;;;;;;2.88;1.50;;;;;;;12.29;45.04;97599.28;5071327;28;20054;-49
2024/03/02 01:51:13;;;;;;;2.33;1.27;;;;;;;12.24;45.51;97591.31;5073840;28;20562;-49
2024/03/02 01:53:39;;;;;;;2.58;1.23;;;;;;;12.36;45.72;97589.41;5073702;28;20119;-50
2024/03/02 01:56:04;;;;;;;4.97;3.72;;;;;;;12.45;44.89;97602.19;5074982;28;20024;-49
2024/03/02 01:58:30;;;;;;;5.57;1.20;;;;;;;12.49;44.38;97590.94;5075027;28;20099;-49
2024/03/02 02:00:56;;;;;;;6.38;3.13;;;;;;;12.37;44.65;97592.84;5074920;28;20028;-50
2024/03/02 02:03:22;;;;;;;3.55;1.88;;;;;;;12.36;45.21;97588.63;5074857;28;20028;-49
2024/03/02 02:05:47;;;;;;;1.83;1.05;;;;;;;12.37;45.16;97598.91;5074790;28;20029;-50
2024/03/02 02:08:13;;;;;;;2.25;1.27;;;;;;;12.35;45.20;97592.28;5075030;28;20055;-50
2024/03/02 02:10:39;;;;;;;6.32;4.80;;;;;;;12.43;45.44;97594.50;5073403;28;20495;-49
2024/03/02 02:13:05;;;;;;;6.57;4.05;;;;;;;12.57;44.83;97587.09;5074690;28;20074;-49
2024/03/02 02:15:32;;;;;;;2.13;1.52;;;;;;;12.57;44.77;97582.63;5073240;28;20513;-50
2024/03/02 02:17:58;;;;;;;6.47;2.47;;;;;;;12.60;44.84;97578.75;5074608;28;20086;-50
2024/03/02 02:20:25;;;;;;;2.22;1.40;;;;;;;12.66;44.89;97582.25;5073258;28;20103;-50
2024/03/02 02:23:02;;;;;;;4.57;1.20;;;;;;;12.74;45.02;97579.22;5074554;28;20102;-50
2024/03/02 02:25:29;;;;;;;6.82;5.70;;;;;;;12.80;44.59;97562.44;5073113;28;20024;-50
2024/03/02 02:27:55;;;;;;;4.38;1.77;;;;;;;12.90;44.25;97557.31;5074438;28;20104;-49
2024/03/02 02:30:30;;;;;;;1.90;1.15;;;;;;;12.88;44.27;97545.44;5073125;28;20024;-49
2024/03/02 02:32:56;;;;;;;1.50;1.23;;;;;;;12.96;44.80;97542.38;5074466;28;20025;-50
2024/03/02 02:35:25;;;;;;;3.33;1.05;;;;;;;13.08;45.15;97540.44;5072792;28;20044;-50
2024/03/02 02:37:51;;;;;;;4.47;1.20;;;;;;;13.23;44.78;97539.03;5074297;28;20020;-49
2024/03/02 02:40:20;;;;;;;1.77;1.17;;;;;;;13.31;44.42;97549.94;5072914;28;20584;-50
2024/03/02 02:42:46;;;;;;;3.38;0.88;;;;;;;13.29;44.43;97545.94;5074189;28;20095;-50
2024/03/02 02:45:14;;;;;;;4.72;1.10;;;;;;;13.23;44.49;97552.19;5074364;28;20120;-50
2024/03/02 02:47:41;;;;;;;3.05;1.50;;;;;;;13.23;44.55;97546.91;5074074;28;20517;-49
2024/03/02 02:50:07;;;;;;;128.07;107.07;;;;;;;13.17;44.80;97549.47;5074260;28;20024;-50
2024/03/02 02:52:39;;;;;;;43.42;32.90;;;;;;;13.10;45.41;97540.16;5073972;28;20024;-50
2024/03/02 02:55:06;;;;;;;35.08;31.20;;;;;;;13.06;45.23;97533.78;5073859;28;20495;-50
2024/03/02 02:57:37;;;;;;;15.68;14.00;;;;;;;12.98;45.96;97535.81;5073941;28;20024;-49
2024/03/02 03:00:09;;;;;;;8.95;5.40;;;;;;;13.08;46.30;97529.88;5073954;28;20028;-50
2024/03/02 03:02:38;;;;;;;4.53;3.58;;;;;;;13.13;46.08;97532.56;5073753;28;20029;-49
2024/03/02 03:05:06;;;;;;;5.03;1.98;;;;;;;13.19;45.69;97517.63;5073726;28;20394;-49
2024/03/02 03:07:32;;;;;;;4.78;2.58;;;;;;;13.23;46.12;97521.38;5073622;28;20099;-50
2024/03/02 03:09:58;;;;;;;3.80;2.28;;;;;;;13.33;46.10;97529.41;5073613;28;20036;-49
2024/03/02 03:12:24;;;;;;;4.57;3.00;;;;;;;13.37;45.59;97525.25;5072263;28;20032;-50
2024/03/02 03:14:49;;;;;;;4.75;3.30;;;;;;;13.44;45.55;97522.44;5073538;28;20104;-50
2024/03/02 03:17:15;;;;;;;7.88;6.40;;;;;;;13.52;45.27;97515.91;5072198;28;20441;-50
2024/03/02 03:19:41;;;;;;;8.77;7.82;;;;;;;13.47;44.63;97514.03;5073472;28;20020;-49
2024/03/02 03:22:06;;;;;;;2.53;2.00;;;;;;;13.34;45.29;97507.31;5072113;28;20031;-50
2024/03/02 03:24:32;;;;;;;4.80;1.67;;;;;;;13.36;45.05;97510.50;5072022;28;20029;-49
2024/03/02 03:26:58;;;;;;;3.55;2.10;;;;;;;13.38;45.43;97502.31;5072006;28;20031;-50
2024/03/02 03:29:24;;;;;;;3.35;2.10;;;;;;;13.44;45.39;97513.72;5073272;28;20035;-50
2024/03/02 03:31:50;;;;;;;1.80;1.13;;;;;;;13.37;45.37;97519.97;5071878;28;20070;-50
2024/03/02 03:34:16;;;;;;;2.30;1.02;;;;;;;13.41;45.38;97522.13;5071931;28;20020;-49
2024/03/02 03:36:43;;;;;;;3.63;3.17;;;;;;;13.44;44.94;97519.81;5071551;28;20472;-50
2024/03/02 03:39:09;;;;;;;4.45;1.20;;;;;;;13.43;44.89;97507.66;5073055;28;20486;-50
2024/03/02 03:41:36;;;;;;;6.80;1.60;;;;;;;13.41;45.32;97517.66;5073044;28;20025;-50
2024/03/02 03:44:01;;;;;;;2.17;1.10;;;;;;;13.47;45.09;97515.88;5071964;28;20442;-50
2024/03/02 03:46:27;;;;;;;1.70;0.75;;;;;;;13.48;44.50;97526.16;5071575;28;20055;-49
2024/03/02 03:48:53;;;;;;;2.75;1.10;;;;;;;13.35;45.04;97527.31;5071623;28;20398;-50
2024/03/02 03:51:18;;;;;;;1.65;0.70;;;;;;;13.42;45.26;97524.53;5072837;28;20445;-49
2024/03/02 03:53:44;;;;;;;2.13;0.90;;;;;;;13.55;44.75;97518.06;5072785;28;20024;-49
2024/03/02 03:56:10;;;;;;;2.58;1.05;;;;;;;13.59;44.50;97514.66;5071368;28;20039;-49
2024/03/02 03:58:36;;;;;;;5.03;1.27;;;;;;;13.66;44.52;97517.13;5072660;28;20050;-50
2024/03/02 04:01:02;;;;;;;3.50;0.90;;;;;;;13.71;44.57;97517.16;5071282;28;20093;-50
2024/03/02 04:03:27;;;;;;;3.20;1.63;;;;;;;13.68;43.98;97509.75;5072563;28;20028;-49
2024/03/02 04:05:53;;;;;;;2.17;1.00;;;;;;;13.58;44.41;97512.28;5072507;28;20046;-50
2024/03/02 04:08:19;;;;;;;6.40;4.53;;;;;;;13.55;44.76;97520.69;5072522;28;20103;-50
2024/03/02 04:10:44;;;;;;;3.13;2.03;;;;;;;13.49;44.90;97508.50;5071150;28;20029;-49
2024/03/02 04:13:10;;;;;;;2.78;1.00;;;;;;;13.54;44.80;97511.19;5070631;28;20494;-50
2024/03/02 04:15:36;;;;;;;1.77;1.00;;;;;;;13.52;44.71;97510.63;5054398;28;20116;-50
2024/03/02 04:18:01;;;;;;;1.85;0.82;;;;;;;13.54;44.44;97514.63;5070999;28;20448;-50
2024/03/02 04:20:27;;;;;;;2.60;1.35;;;;;;;13.50;44.71;97518.00;5072289;28;20031;-49
2024/03/02 04:22:53;;;;;;;2.60;1.67;;;;;;;13.56;44.76;97522.25;5072296;28;20020;-50
2024/03/02 04:25:19;;;;;;;5.32;0.93;;;;;;;13.64;44.45;97513.91;5070909;28;20094;-50
2024/03/02 04:27:45;;;;;;;2.17;1.10;;;;;;;13.71;44.27;97509.25;5072207;28;20036;-49
2024/03/02 04:30:11;;;;;;;2.78;2.58;;;;;;;13.57;44.31;97516.75;5072174;28;20044;-50
2024/03/02 04:32:37;;;;;;;2.63;0.93;;;;;;;13.45;44.58;97510.03;5072089;28;20444;-49
2024/03/02 04:35:03;;;;;;;4.10;1.05;;;;;;;13.39;44.96;97511.81;5070501;28;20131;-50
2024/03/02 04:37:30;;;;;;;6.05;3.47;;;;;;;13.43;44.97;97514.78;5072074;28;20028;-49
2024/03/02 04:39:56;;;;;;;3.22;1.50;;;;;;;13.44;45.34;97518.97;5072044;28;20032;-50
2024/03/02 04:42:22;;;;;;;2.80;1.00;;;;;;;13.43;45.26;97505.00;5071890;28;20035;-50
2024/03/02 04:44:48;;;;;;;2.10;0.90;;;;;;;13.47;45.13;97519.28;5071938;28;20112;-49
2024/03/02 04:47:14;;;;;;;2.80;1.67;;;;;;;13.45;45.21;97516.09;5070760;28;20056;-49
2024/03/02 04:49:39;;;;;;;1.70;1.05;;;;;;;13.52;45.07;97515.91;5053950;28;20020;-50
2024/03/02 04:52:05;;;;;;;3.10;1.00;;;;;;;13.53;44.71;97513.03;5071905;28;20097;-49
2024/03/02 04:54:31;;;;;;;4.25;1.10;;;;;;;13.48;44.79;97520.06;5070456;28;20024;-50
2024/03/02 04:56:57;;;;;;;2.17;0.90;;;;;;;13.45;44.75;97515.31;5071754;28;20027;-49
2024/03/02 04:59:22;;;;;;;4.00;2.10;;;;;;;13.39;45.51;97515.25;5070480;28;20024;-49
2024/03/02 05:01:48;;;;;;;2.13;1.20;;;;;;;13.31;45.08;97502.50;5071713;28;20017;-50
2024/03/02 05:04:14;;;;;;;0.93;0.70;;;;;;;13.24;45.82;97507.16;5071686;28;20048;-50
2024/03/02 05:06:40;;;;;;;1.88;0.80;;;;;;;13.23;45.60;97508.19;5070359;28;20037;-50
2024/03/02 05:09:09;;;;;;;2.13;1.20;;;;;;;13.26;45.65;97505.06;5070416;28;20108;-50
2024/03/02 05:14:07;;;;;;;5.38;1.00;;;;;;;13.15;46.64;97484.91;5071689;28;20027;-49
2024/03/02 05:16:38;;;;;;;1.35;0.85;;;;;;;13.26;46.30;97476.09;5070218;28;20028;-49
2024/03/02 05:19:06;;;;;;;1.92;0.65;;;;;;;13.24;46.14;97475.53;5070391;28;20025;-49
2024/03/02 05:21:33;;;;;;;2.58;0.80;;;;;;;13.23;46.30;97471.31;5071538;28;20028;-50
2024/03/02 05:23:59;;;;;;;3.08;1.00;;;;;;;13.21;46.29;97483.94;5071593;28;20070;-50
2024/03/02 05:26:25;;;;;;;2.08;1.02;;;;;;;13.14;46.49;97478.84;5073260;28;20025;-50
2024/03/02 05:28:50;;;;;;;16.75;14.82;;;;;;;13.12;46.63;97483.56;5075598;28;20103;-50
2024/03/02 05:31:16;;;;;;;2.53;1.92;;;;;;;13.06;46.57;97481.13;5075528;28;20017;-49
2024/03/02 05:33:42;;;;;;;2.70;1.30;;;;;;;12.91;47.59;97474.63;5075381;28;20490;-50
2024/03/02 05:36:08;;;;;;;5.60;1.20;;;;;;;12.89;47.51;97483.81;5075140;28;20136;-49
2024/03/02 05:38:37;;;;;;;4.18;1.48;;;;;;;12.87;47.82;97484.06;5074061;28;20454;-50
2024/03/02 05:41:03;;;;;;;2.00;1.00;;;;;;;12.91;47.90;97484.38;5074008;28;20025;-50
2024/03/02 05:43:29;;;;;;;1.50;0.90;;;;;;;12.93;48.22;97488.34;5075283;28;20025;-50
2024/03/02 05:45:54;;;;;;;3.97;1.15;;;;;;;12.94;47.92;97484.69;5075230;28;20016;-50
2024/03/02 05:48:20;;;;;;;3.00;1.48;;;;;;;12.89;48.22;97484.59;5073871;28;20055;-50
2024/03/02 05:50:46;;;;;;;1.92;1.15;;;;;;;12.78;47.93;97473.16;5075188;28;20052;-50
2024/03/02 05:53:12;;;;;;;1.92;1.30;;;;;;;12.74;48.67;97479.97;5073783;28;20024;-50
2024/03/02 05:55:38;;;;;;;2.47;1.20;;;;;;;12.74;48.70;97477.31;5073620;28;20029;-50
2024/03/02 06:00:33;;;;;;;7.03;1.20;;;;;;;12.86;48.76;97476.41;5074932;28;20027;-50
2024/03/02 06:02:58;;;;;;;3.65;1.70;;;;;;;12.90;49.02;97473.06;5074869;28;20024;-49
2024/03/02 06:05:24;;;;;;;13.60;8.80;;;;;;;12.93;48.68;97471.75;5073522;28;20035;-49
2024/03/02 06:07:50;;;;;;;5.43;2.15;;;;;;;12.90;48.86;97469.63;5073483;28;20020;-50
2024/03/02 06:10:17;;;;;;;5.97;3.22;;;;;;;12.83;49.14;97451.34;5075020;28;20035;-50
2024/03/02 06:12:43;;;;;;;5.13;1.73;;;;;;;12.86;49.23;97457.97;5074811;28;20028;-49
2024/03/02 06:15:10;;;;;;;2.75;1.08;;;;;;;12.77;49.15;97452.34;5074710;28;20471;-49
2024/03/02 06:17:36;;;;;;;4.53;1.10;;;;;;;12.78;49.54;97446.06;5074633;28;20027;-50
2024/03/02 06:20:02;;;;;;;7.80;3.88;;;;;;;12.81;49.70;97453.44;5074625;28;20025;-50
2024/03/02 06:22:28;;;;;;;120.82;60.42;;;;;;;12.90;49.91;97440.66;5074525;28;20035;-49
2024/03/02 06:24:53;;;;;;;63.88;35.88;;;;;;;13.03;49.94;97453.44;5073197;28;20029;-50
2024/03/02 06:27:19;;;;;;;19.60;12.65;;;;;;;13.17;49.54;97448.59;5074514;28;20051;-50
2024/03/02 06:29:45;;;;;;;12.75;4.70;;;;;;;13.09;49.11;97449.81;5074500;28;20023;-50
2024/03/02 06:32:11;;;;;;;6.85;3.00;;;;;;;13.08;49.53;97447.41;5074365;28;20021;-50
2024/03/02 06:34:36;;;;;;;6.95;2.55;;;;;;;13.07;49.78;97441.38;5074100;28;20613;-51
2024/03/02 06:37:02;;;;;;;3.10;1.88;;;;;;;13.16;49.61;97434.63;5073864;28;20024;-50
2024/03/02 06:39:28;;;;;;;3.75;2.30;;;;;;;13.14;49.45;97439.34;5072941;28;20031;-49
2024/03/02 06:41:53;;;;;;;6.28;2.67;;;;;;;13.21;49.82;97435.72;5072927;28;20482;-50
2024/03/02 06:44:19;;;;;;;4.88;2.60;;;;;;;13.31;49.36;97433.22;5072798;28;20081;-50
2024/03/02 06:46:44;;;;;;;5.00;2.20;;;;;;;13.26;49.26;97428.66;5074148;28;20013;-49
2024/03/02 06:49:10;;;;;;;4.70;1.88;;;;;;;13.32;49.63;97422.44;5072828;28;20028;-48
2024/03/02 06:51:36;;;;;;;5.32;1.55;;;;;;;13.38;49.35;97421.44;5074032;28;20028;-49
2024/03/02 06:54:02;;;;;;;6.03;1.70;;;;;;;13.36;49.41;97422.72;5072740;28;20446;-50
2024/03/02 06:56:28;;;;;;;4.03;2.05;;;;;;;13.28;49.45;97431.03;5072575;28;20073;-49
2024/03/02 06:58:54;;;;;;;12.00;4.03;;;;;;;13.31;49.60;97426.09;5072608;28;20029;-50
2024/03/02 07:01:20;;;;;;;3.90;1.55;;;;;;;13.41;49.84;97435.94;5072824;28;20031;-50
2024/03/02 07:03:46;;;;;;;3.65;1.92;;;;;;;13.46;49.63;97432.56;5073782;28;20021;-49
2024/03/02 07:06:11;;;;;;;5.90;1.40;;;;;;;13.55;49.57;97428.44;5072452;28;20394;-50
2024/03/02 07:08:37;;;;;;;3.65;1.35;;;;;;;13.59;49.11;97429.53;5073754;28;20032;-50
2024/03/02 07:11:03;;;;;;;3.88;1.38;;;;;;;13.55;49.10;97423.16;5074012;28;20016;-50
2024/03/02 07:13:29;;;;;;;3.58;1.50;;;;;;;13.55;49.36;97425.78;5073668;28;20020;-49
2024/03/02 07:18:40;;;;;;;3.72;2.75;;;;;;;13.94;49.01;97423.75;5073633;28;20032;-50
2024/03/02 07:21:07;;;;;;;4.70;2.55;;;;;;;14.12;48.74;97416.47;5073542;28;20043;-50
2024/03/02 07:23:34;;;;;;;4.47;1.40;;;;;;;14.28;48.01;97412.06;5072152;28;20067;-50
2024/03/02 07:26:01;;;;;;;2.53;1.38;;;;;;;14.41;47.80;97406.34;5073396;28;20016;-49
2024/03/02 07:28:27;;;;;;;4.63;1.45;;;;;;;14.46;47.55;97414.28;5073279;28;20074;-48
2024/03/02 07:31:00;;;;;;;6.70;2.17;;;;;;;14.55;47.17;97409.31;5073326;28;20116;-48
2024/03/02 07:33:26;;;;;;;4.30;2.00;;;;;;;14.63;47.31;97408.03;5073182;28;20077;-48
2024/03/02 07:35:54;;;;;;;3.85;1.40;;;;;;;14.73;47.14;97403.63;5071583;28;20049;-49
2024/03/02 07:38:20;;;;;;;6.82;2.08;;;;;;;14.96;46.48;97405.00;5073117;28;20077;-49
2024/03/02 07:40:46;;;;;;;2.72;1.40;;;;;;;14.97;45.64;97408.44;5071785;28;20514;-49
2024/03/02 07:43:11;;;;;;;6.15;1.63;;;;;;;14.82;45.55;97411.03;5073089;28;20052;-50
2024/03/02 07:45:37;;;;;;;3.28;1.30;;;;;;;14.71;46.00;97404.94;5071675;28;20093;-49
2024/03/02 07:48:06;;;;;;;2.53;1.15;;;;;;;14.73;46.15;97403.63;5070905;28;20033;-48
2024/03/02 07:50:34;;;;;;;3.60;1.70;;;;;;;14.81;45.84;97398.88;5072894;28;20134;-48
2024/03/02 07:53:01;;;;;;;3.38;1.20;;;;;;;14.85;45.54;97406.03;5073140;28;20028;-48
2024/03/02 07:55:26;;;;;;;3.80;1.90;;;;;;;14.83;45.66;97402.88;5072737;28;20029;-48
2024/03/02 07:57:52;;;;;;;5.80;1.10;;;;;;;14.96;45.26;97405.00;5072779;28;20028;-48
2024/03/02 08:00:18;;;;;;;6.70;1.70;;;;;;;15.23;45.26;97401.38;5071376;28;20035;-48
2024/03/02 08:02:43;;;;;;;3.90;1.67;;;;;;;15.76;44.22;97401.97;5071419;28;20059;-48
2024/03/02 08:05:09;;;;;;;3.33;1.40;;;;;;;16.52;43.06;97400.22;5072646;28;20020;-48
2024/03/02 08:07:35;;;;;;;3.55;1.40;;;;;;;17.45;40.78;97389.94;5071240;28;20024;-46
2024/03/02 08:10:01;;;;;;;3.47;1.30;;;;;;;18.60;38.71;97385.97;5071207;28;20490;-47
2024/03/02 08:12:26;;;;;;;4.28;1.50;;;;;;;18.87;37.66;97380.84;5072481;28;20031;-47
2024/03/02 08:14:52;;;;;;;6.78;1.48;;;;;;;18.27;38.36;97383.13;5072335;28;20402;-47
2024/03/02 08:17:18;;;;;;;3.10;1.55;;;;;;;17.97;38.57;97382.38;5071043;28;20028;-47
2024/03/02 08:19:44;;;;;;;2.72;1.38;;;;;;;17.94;38.30;97385.59;5072341;28;20086;-47
2024/03/02 08:22:10;;;;;;;3.30;2.03;;;;;;;17.87;39.15;97382.50;5072212;28;20035;-48
2024/03/02 08:24:36;;;;;;;4.97;1.67;;;;;;;18.31;39.19;97374.34;5072289;28;20383;-47
2024/03/02 08:27:02;;;;;;;3.80;1.33;;;;;;;18.89;37.23;97367.28;5070895;28;20115;-47
2024/03/02 08:29:28;;;;;;;13.00;11.80;;;;;;;19.13;36.49;97362.66;5070854;28;20111;-45
2024/03/02 08:31:54;;;;;;;4.03;1.90;;;;;;;19.06;35.92;97356.16;5072191;28;20028;-46
2024/03/02 08:34:20;;;;;;;4.15;1.83;;;;;;;19.20;36.15;97354.34;5071093;28;20494;-46
2024/03/02 08:36:46;;;;;;;2.75;1.50;;;;;;;19.31;35.78;97363.72;5070530;28;20080;-47
2024/03/02 08:39:16;;;;;;;3.28;1.50;;;;;;;19.87;35.37;97361.28;5072079;28;20028;-46
2024/03/02 08:41:45;;;;;;;4.07;1.80;;;;;;;20.14;34.79;97361.31;5072034;28;20028;-46
2024/03/02 08:44:12;;;;;;;5.50;2.10;;;;;;;19.80;34.29;97358.19;5071988;28;20020;-46
2024/03/02 08:46:39;;;;;;;4.80;1.60;;;;;;;19.12;35.22;97355.78;5071969;28;20031;-47
2024/03/02 08:49:06;;;;;;;5.05;2.20;;;;;;;18.48;36.38;97349.97;5071931;28;20028;-47
2024/03/02 08:51:32;;;;;;;3.22;1.27;;;;;;;18.23;37.31;97348.41;5071875;28;20510;-47
2024/03/02 08:53:59;;;;;;;6.50;1.73;;;;;;;17.98;37.77;97343.34;5070572;28;20036;-47
2024/03/02 08:56:25;;;;;;;4.20;1.60;;;;;;;17.84;38.29;97332.59;5070405;28;20051;-47
2024/03/02 08:58:54;;;;;;;7.88;4.53;;;;;;;17.61;38.72;97350.84;5071638;28;20021;-47
2024/03/02 09:01:20;;;;;;;4.57;2.60;;;;;;;17.34;38.90;97341.50;5070422;28;20033;-47
2024/03/02 09:03:46;;;;;;;5.55;1.35;;;;;;;17.13;39.29;97340.84;5071754;28;20027;-47
2024/03/02 09:06:13;;;;;;;5.90;1.92;;;;;;;16.92;39.42;97344.69;5071773;28;20074;-47
2024/03/02 09:08:39;;;;;;;10.30;2.78;;;;;;;16.71;40.32;97351.94;5071640;28;20025;-46
2024/03/02 09:11:07;;;;;;;6.97;1.90;;;;;;;16.58;40.57;97351.47;5071670;28;20029;-47
2024/03/02 09:13:33;;;;;;;3.63;1.40;;;;;;;16.45;40.81;97341.44;5071688;28;20421;-47
2024/03/02 09:15:59;;;;;;;2.25;1.20;;;;;;;16.36;41.15;97349.19;5071542;28;20058;-47
2024/03/02 09:18:25;;;;;;;6.63;5.57;;;;;;;16.19;41.53;97340.75;5071608;28;20056;-47
2024/03/02 09:20:51;;;;;;;4.38;1.63;;;;;;;16.19;41.46;97354.00;5071619;28;20028;-46
2024/03/02 09:23:16;;;;;;;4.70;1.90;;;;;;;15.96;41.72;97344.78;5071549;28;20032;-47
2024/03/02 09:25:42;;;;;;;4.95;1.42;;;;;;;16.00;41.82;97350.31;5071850;28;20024;-47
2024/03/02 09:28:10;;;;;;;2.90;1.45;;;;;;;15.98;41.88;97346.09;5070341;28;20039;-47
2024/03/02 09:30:36;;;;;;;4.47;1.77;;;;;;;15.78;41.81;97343.50;5071489;28;20498;-47
2024/03/02 09:33:01;;;;;;;5.43;1.40;;;;;;;15.50;43.89;97336.88;5071527;28;20035;-47
2024/03/02 09:35:27;;;;;;;4.72;1.60;;;;;;;15.33;42.99;97343.25;5071019;28;20072;-47
2024/03/02 09:37:53;;;;;;;4.70;1.77;;;;;;;15.23;44.06;97340.59;5070086;28;20036;-47
2024/03/02 09:40:22;;;;;;;9.63;1.58;;;;;;;15.25;44.59;97327.91;5071357;28;20033;-47
2024/03/02 09:42:52;;;;;;;6.20;1.40;;;;;;;15.28;44.07;97329.22;5071318;28;20072;-47
2024/03/02 09:45:23;;;;;;;3.08;1.17;;;;;;;15.27;43.38;97344.28;5071357;28;20068;-47
2024/03/02 09:47:49;;;;;;;10.98;1.88;;;;;;;15.10;44.13;97306.75;5071337;28;20501;-47
2024/03/02 09:50:16;;;;;;;9.45;6.15;;;;;;;14.76;44.41;97315.13;5071298;28;20032;-47
2024/03/02 09:52:49;;;;;;;4.97;2.17;;;;;;;14.52;45.03;97318.22;5071278;28;20481;-47
2024/03/02 09:55:18;;;;;;;3.88;1.85;;;;;;;14.22;45.57;97328.66;5071160;28;20082;-47
2024/03/02 09:57:45;;;;;;;4.40;1.73;;;;;;;14.08;46.42;97318.56;5071475;28;20490;-47
2024/03/02 10:00:14;;;;;;;6.05;2.53;;;;;;;13.99;46.17;97312.19;5071207;28;20031;-47
2024/03/02 10:02:44;;;;;;;6.95;1.50;;;;;;;13.93;46.58;97313.22;5071171;28;20036;-45
2024/03/02 10:05:11;;;;;;;3.85;2.13;;;;;;;14.00;47.20;97297.94;5071166;28;20426;-45
2024/03/02 10:07:37;;;;;;;2.75;1.30;;;;;;;14.14;46.54;97304.34;5071196;28;20028;-45
2024/03/02 10:10:14;;;;;;;3.88;1.25;;;;;;;14.28;47.86;97298.59;5071156;28;20025;-45
2024/03/02 10:12:40;;;;;;;3.50;1.48;;;;;;;14.54;47.83;97297.63;5074218;28;20464;-45
2024/03/02 10:15:07;;;;;;;12.35;8.00;;;;;;;14.74;47.88;97280.28;5073322;28;20051;-45
2024/03/02 10:17:33;;;;;;;4.82;2.42;;;;;;;14.93;46.75;97291.94;5073394;28;20064;-45
2024/03/02 10:19:59;;;;;;;5.53;1.50;;;;;;;15.16;45.41;97284.53;5074654;28;20047;-47
2024/03/02 10:22:26;;;;;;;3.40;1.55;;;;;;;15.34;45.85;97291.16;5074575;28;20024;-45
2024/03/02 10:24:52;;;;;;;4.07;2.47;;;;;;;15.71;44.08;97285.53;5074620;28;20554;-45
2024/03/02 10:27:29;;;;;;;6.50;2.60;;;;;;;16.24;43.95;97282.50;5074481;28;20036;-47
2024/03/02 10:29:56;;;;;;;6.45;3.20;;;;;;;17.36;40.90;97288.16;5074496;28;20083;-48
2024/03/02 10:32:22;;;;;;;9.55;3.03;;;;;;;18.34;39.82;97272.81;5074479;28;20441;-48
2024/03/02 10:34:52;;;;;;;2.75;1.30;;;;;;;19.76;36.23;97267.50;5075542;28;20409;-48
2024/03/02 10:37:21;;;;;;;2.08;1.20;;;;;;;20.45;34.26;97258.66;5072940;28;20091;-47
2024/03/02 10:39:48;;;;;;;2.72;1.33;;;;;;;21.25;33.38;97272.31;5074328;28;20039;-47
2024/03/02 10:42:16;;;;;;;3.13;1.50;;;;;;;21.95;31.84;97241.41;5072977;28;20116;-48
2024/03/02 10:44:44;;;;;;;5.97;1.73;;;;;;;22.46;31.01;97244.56;5072885;28;20035;-47
2024/03/02 10:47:13;;;;;;;6.25;2.58;;;;;;;22.33;30.51;97224.88;5072799;28;20080;-45
2024/03/02 10:49:43;;;;;;;4.63;1.70;;;;;;;22.17;30.64;97231.72;5074363;28;20078;-46
2024/03/02 10:52:09;;;;;;;3.50;1.30;;;;;;;22.29;30.33;97235.38;5072713;28;20056;-47
2024/03/02 10:54:39;;;;;;;2.53;1.15;;;;;;;22.38;30.39;97215.94;5072698;28;20506;-48
2024/03/02 10:57:12;;;;;;;2.55;1.30;;;;;;;23.02;30.27;97212.59;5072616;28;20029;-48
2024/03/02 10:59:52;;;;;;;2.33;1.30;;;;;;;24.01;28.89;97209.75;5074031;28;20024;-46
2024/03/02 11:02:22;;;;;;;2.95;1.42;;;;;;;24.49;27.87;97210.38;5072716;28;20033;-48
2024/03/02 11:04:53;;;;;;;4.03;1.30;;;;;;;23.96;27.97;97169.72;5073736;28;20028;-48
2024/03/02 11:07:25;;;;;;;2.70;1.27;;;;;;;23.23;29.01;97205.47;5072588;28;20090;-48
2024/03/02 11:10:08;;;;;;;2.78;1.30;;;;;;;23.45;29.55;97201.00;5073703;28;20052;-47
2024/03/02 11:12:58;;;;;;;2.22;1.38;;;;;;;23.80;28.41;97195.50;5073967;28;20039;-48
2024/03/02 11:15:26;;;;;;;3.90;2.13;;;;;;;23.67;28.31;97165.16;5073598;28;20474;-47
2024/03/02 11:17:53;;;;;;;5.30;2.10;;;;;;;23.62;28.55;97170.66;5073507;28;20035;-46
2024/03/02 11:20:20;;;;;;;6.15;1.30;;;;;;;23.19;29.25;97159.03;5073502;28;20025;-46
2024/03/02 11:22:46;;;;;;;1.55;1.08;;;;;;;22.27;30.09;97168.09;5072484;28;20064;-45
2024/03/02 11:25:32;;;;;;;6.47;2.42;;;;;;;21.31;31.40;97164.38;5072120;28;20032;-46
2024/03/02 11:28:02;;;;;;;2.92;1.45;;;;;;;21.23;32.03;97149.91;5073170;28;20045;-46
2024/03/02 11:30:34;;;;;;;4.68;1.80;;;;;;;21.61;31.50;97140.63;5073589;28;20451;-47
2024/03/02 11:33:07;;;;;;;4.55;1.27;;;;;;;21.57;32.02;97145.00;5073281;28;20024;-47
2024/03/02 11:35:48;;;;;;;4.80;1.55;;;;;;;21.34;32.11;97135.16;5071617;28;20075;-47
2024/03/02 11:38:14;;;;;;;7.88;4.10;;;;;;;20.88;32.82;97141.69;5073089;28;20461;-47